Time;durP1;ratioP1;P1;durP2;ratioP2;P2;SDS_P1;SDS_P2;PMS_P1;PMS_P2;Temp;Humidity;BMP_temperature;BMP_pressure;BME280_temperature;BME280_humidity;BME280_pressure;Samples;Min_cycle;Max_cycle;Signal;HPM_P1;HPM_P2
2024/04/21 00:01:01;;;;;;;7.93;6.78;;;;;;;;;;5467407;26;19997;-47
2024/04/21 00:03:28;;;;;;;7.18;6.47;;;;;;;;;;5467471;26;19920;-46
2024/04/21 00:05:54;;;;;;;8.63;6.60;;;;;;;;;;5466024;26;19987;-37
2024/04/21 00:08:21;;;;;;;7.93;7.13;;;;;;;;;;5467096;26;19987;-43
2024/04/21 00:10:47;;;;;;;9.73;8.32;;;;;;;;;;5467429;26;19995;-46
2024/04/21 00:13:14;;;;;;;7.90;7.10;;;;;;;;;;5488737;26;20183;-45
2024/04/21 00:15:41;;;;;;;8.02;6.65;;;;;;;;;;5467114;26;20087;-50
2024/04/21 00:18:07;;;;;;;6.53;5.95;;;;;;;;;;5482458;26;20001;-38
2024/04/21 00:20:34;;;;;;;8.85;6.93;;;;;;;;;;5483294;26;20061;-43
2024/04/21 00:23:00;;;;;;;8.13;6.57;;;;;;;;;;5467178;26;20019;-44
2024/04/21 00:25:27;;;;;;;8.35;6.18;;;;;;;;;;5467182;26;20065;-39
2024/04/21 00:27:54;;;;;;;8.85;7.45;;;;;;;;;;5467031;26;20007;-39
2024/04/21 00:30:20;;;;;;;8.95;8.10;;;;;;;;;;5467410;26;20095;-40
2024/04/21 00:32:47;;;;;;;8.35;7.25;;;;;;;;;;5473043;26;20219;-43
2024/04/21 00:35:14;;;;;;;9.63;7.35;;;;;;;;;;5487146;26;20003;-39
2024/04/21 00:37:40;;;;;;;38.88;9.98;;;;;;;;;;5466846;26;19999;-41
2024/04/21 00:40:07;;;;;;;13.90;7.28;;;;;;;;;;5466672;26;19991;-44
2024/04/21 00:42:34;;;;;;;12.98;8.77;;;;;;;;;;5475681;26;19986;-50
2024/04/21 00:45:00;;;;;;;15.00;10.93;;;;;;;;;;5492728;26;19986;-48
2024/04/21 00:47:27;;;;;;;15.35;10.80;;;;;;;;;;5502587;26;19989;-45
2024/04/21 00:49:53;;;;;;;12.95;9.48;;;;;;;;;;5503213;26;20047;-43
2024/04/21 00:52:20;;;;;;;11.40;8.43;;;;;;;;;;5503106;26;19988;-38
2024/04/21 00:54:47;;;;;;;9.27;7.72;;;;;;;;;;5502941;26;19986;-59
2024/04/21 00:57:14;;;;;;;8.80;7.72;;;;;;;;;;5502141;26;19986;-51
2024/04/21 00:59:41;;;;;;;8.98;8.05;;;;;;;;;;5503053;26;20018;-47
2024/04/21 01:02:08;;;;;;;10.35;8.18;;;;;;;;;;5502587;26;20010;-50
2024/04/21 01:04:35;;;;;;;9.68;7.30;;;;;;;;;;5502705;26;19986;-48
2024/04/21 01:07:01;;;;;;;9.02;7.20;;;;;;;;;;5502758;26;20031;-47
2024/04/21 01:09:28;;;;;;;7.60;6.88;;;;;;;;;;5502377;26;20001;-47
2024/04/21 01:11:55;;;;;;;6.68;6.03;;;;;;;;;;5502641;26;19993;-48
2024/04/21 01:14:21;;;;;;;6.45;5.38;;;;;;;;;;5491465;26;20052;-38
2024/04/21 01:16:48;;;;;;;6.88;5.22;;;;;;;;;;5474190;26;19983;-43
2024/04/21 01:19:14;;;;;;;9.77;6.57;;;;;;;;;;5469826;26;20003;-43
2024/04/21 01:21:41;;;;;;;6.65;5.80;;;;;;;;;;5469700;26;19987;-40
2024/04/21 01:24:07;;;;;;;7.78;5.50;;;;;;;;;;5469354;26;19990;-43
2024/04/21 01:26:34;;;;;;;6.75;5.38;;;;;;;;;;5469495;26;19987;-45
2024/04/21 01:29:00;;;;;;;6.20;5.60;;;;;;;;;;5469627;26;19987;-38
2024/04/21 01:31:28;;;;;;;6.88;5.97;;;;;;;;;;5469784;26;19990;-43
2024/04/21 01:33:54;;;;;;;6.53;5.75;;;;;;;;;;5469563;26;20015;-44
2024/04/21 01:36:21;;;;;;;6.72;6.13;;;;;;;;;;5469651;26;20039;-51
2024/04/21 01:38:47;;;;;;;7.70;6.18;;;;;;;;;;5469222;26;20011;-43
2024/04/21 01:41:14;;;;;;;9.60;6.20;;;;;;;;;;5469671;26;19986;-42
2024/04/21 01:43:40;;;;;;;16.67;7.00;;;;;;;;;;5470123;26;19994;-51
2024/04/21 01:46:07;;;;;;;8.23;6.43;;;;;;;;;;5485633;26;19997;-41
2024/04/21 01:48:34;;;;;;;8.15;6.13;;;;;;;;;;5505526;26;20207;-47
2024/04/21 01:51:00;;;;;;;13.27;6.28;;;;;;;;;;5505835;26;19990;-46
2024/04/21 01:53:27;;;;;;;13.88;7.40;;;;;;;;;;5505484;26;19986;-46
2024/04/21 01:55:53;;;;;;;21.23;7.65;;;;;;;;;;5505549;26;20042;-40
2024/04/21 01:58:20;;;;;;;25.50;7.85;;;;;;;;;;5505472;26;19986;-41
2024/04/21 02:00:46;;;;;;;19.63;8.38;;;;;;;;;;5505696;26;19997;-49
2024/04/21 02:03:13;;;;;;;23.05;8.63;;;;;;;;;;5505328;26;19994;-51
2024/04/21 02:05:39;;;;;;;20.73;9.38;;;;;;;;;;5505554;26;20046;-41
2024/04/21 02:08:07;;;;;;;17.88;8.32;;;;;;;;;;5505289;26;19997;-42
2024/04/21 02:10:33;;;;;;;17.27;8.85;;;;;;;;;;5515675;26;20001;-42
2024/04/21 02:13:00;;;;;;;14.68;8.80;;;;;;;;;;5515594;26;20094;-49
2024/04/21 02:15:26;;;;;;;10.13;8.68;;;;;;;;;;5541460;26;20047;-46
2024/04/21 02:17:53;;;;;;;12.30;8.15;;;;;;;;;;5542132;26;19997;-46
2024/04/21 02:20:20;;;;;;;10.65;8.02;;;;;;;;;;5542231;26;19982;-43
2024/04/21 02:22:46;;;;;;;11.52;8.05;;;;;;;;;;5542302;25;19986;-41
2024/04/21 02:25:14;;;;;;;8.48;7.47;;;;;;;;;;5541926;26;19984;-44
2024/04/21 02:27:41;;;;;;;10.13;7.82;;;;;;;;;;5542066;25;20005;-39
2024/04/21 02:30:08;;;;;;;11.43;7.75;;;;;;;;;;5537934;26;19985;-49
2024/04/21 02:32:34;;;;;;;9.65;6.43;;;;;;;;;;5500056;26;20018;-41
2024/04/21 02:35:01;;;;;;;10.68;7.32;;;;;;;;;;5505124;26;19992;-43
2024/04/21 02:37:28;;;;;;;10.75;7.57;;;;;;;;;;5505087;26;20005;-40
2024/04/21 02:39:54;;;;;;;10.05;7.55;;;;;;;;;;5504703;26;19982;-40
2024/04/21 02:42:21;;;;;;;7.97;7.15;;;;;;;;;;5504865;26;19986;-43
2024/04/21 02:44:48;;;;;;;9.15;7.00;;;;;;;;;;5505045;26;19997;-38
2024/04/21 02:47:14;;;;;;;10.48;7.25;;;;;;;;;;5504700;26;19990;-47
2024/04/21 02:49:41;;;;;;;9.98;7.30;;;;;;;;;;5504275;26;20000;-41
2024/04/21 02:52:07;;;;;;;7.90;7.10;;;;;;;;;;5504385;26;20030;-41
2024/04/21 02:54:34;;;;;;;7.75;7.00;;;;;;;;;;5502322;26;20096;-45
2024/04/21 02:57:01;;;;;;;8.23;6.90;;;;;;;;;;5497198;26;19986;-43
2024/04/21 02:59:27;;;;;;;7.13;6.40;;;;;;;;;;5502285;26;20006;-42
2024/04/21 03:01:54;;;;;;;9.32;6.25;;;;;;;;;;5501566;26;19982;-54
2024/04/21 03:04:20;;;;;;;8.48;5.80;;;;;;;;;;5468159;26;19991;-44
2024/04/21 03:06:47;;;;;;;6.78;6.15;;;;;;;;;;5468213;26;20011;-41
2024/04/21 03:09:14;;;;;;;7.07;5.97;;;;;;;;;;5468192;26;19995;-40
2024/04/21 03:11:41;;;;;;;6.80;5.85;;;;;;;;;;5467961;26;20191;-40
2024/04/21 03:14:07;;;;;;;9.73;5.65;;;;;;;;;;5468057;26;19991;-41
2024/04/21 03:16:34;;;;;;;5.88;5.28;;;;;;;;;;5468027;26;20007;-41
2024/04/21 03:19:02;;;;;;;8.63;5.60;;;;;;;;;;5467685;26;20007;-44
2024/04/21 03:21:28;;;;;;;9.55;5.35;;;;;;;;;;5468023;26;20060;-39
2024/04/21 03:23:55;;;;;;;5.35;4.85;;;;;;;;;;5468036;26;19998;-43
2024/04/21 03:26:23;;;;;;;5.60;5.10;;;;;;;;;;5467791;26;19998;-39
2024/04/21 03:28:49;;;;;;;5.95;4.97;;;;;;;;;;5467767;26;19991;-44
2024/04/21 03:31:16;;;;;;;5.20;4.70;;;;;;;;;;5467994;26;20215;-41
2024/04/21 03:33:42;;;;;;;7.32;4.90;;;;;;;;;;5467658;26;20101;-47
2024/04/21 03:36:10;;;;;;;6.45;4.45;;;;;;;;;;5467866;26;20102;-40
2024/04/21 03:38:37;;;;;;;7.97;6.93;;;;;;;;;;5469374;26;19993;-39
2024/04/21 03:41:04;;;;;;;9.00;4.75;;;;;;;;;;5484057;26;19982;-41
2024/04/21 03:43:31;;;;;;;8.52;4.03;;;;;;;;;;5514318;26;20001;-48
2024/04/21 03:45:58;;;;;;;6.28;4.05;;;;;;;;;;5533081;26;19982;-41
2024/04/21 03:48:25;;;;;;;5.82;3.70;;;;;;;;;;5540525;26;19985;-42
2024/04/21 03:50:51;;;;;;;6.97;3.67;;;;;;;;;;5541245;26;19985;-40
2024/04/21 03:53:18;;;;;;;10.80;3.80;;;;;;;;;;5540830;26;19991;-44
2024/04/21 03:55:45;;;;;;;8.88;3.67;;;;;;;;;;5540811;26;20085;-55
2024/04/21 03:58:12;;;;;;;4.70;3.42;;;;;;;;;;5540946;26;19990;-51
2024/04/21 04:00:39;;;;;;;5.80;3.17;;;;;;;;;;5541096;26;19981;-40
2024/04/21 04:03:05;;;;;;;6.38;3.15;;;;;;;;;;5540616;26;19985;-42
2024/04/21 04:05:32;;;;;;;3.33;2.90;;;;;;;;;;5540830;26;19991;-43
2024/04/21 04:07:58;;;;;;;8.48;3.22;;;;;;;;;;5540498;26;20041;-50
2024/04/21 04:10:25;;;;;;;7.07;3.35;;;;;;;;;;5521382;26;20001;-40
2024/04/21 04:12:52;;;;;;;5.43;3.30;;;;;;;;;;5487479;26;20010;-41
2024/04/21 04:15:19;;;;;;;5.82;3.83;;;;;;;;;;5503673;26;20023;-38
2024/04/21 04:17:45;;;;;;;6.43;4.72;;;;;;;;;;5503388;26;19982;-39
2024/04/21 04:20:12;;;;;;;6.22;4.30;;;;;;;;;;5503522;26;19986;-40
2024/04/21 04:22:39;;;;;;;8.25;4.15;;;;;;;;;;5503422;26;19986;-38
2024/04/21 04:25:06;;;;;;;5.40;3.83;;;;;;;;;;5502703;26;19990;-37
2024/04/21 04:27:33;;;;;;;7.78;3.95;;;;;;;;;;5503131;26;19997;-41
2024/04/21 04:29:59;;;;;;;5.22;3.30;;;;;;;;;;5503378;26;19990;-46
2024/04/21 04:32:29;;;;;;;3.85;3.28;;;;;;;;;;5503023;26;20183;-41
2024/04/21 04:34:55;;;;;;;4.60;3.20;;;;;;;;;;5503907;26;19994;-41
2024/04/21 04:37:22;;;;;;;7.78;3.47;;;;;;;;;;5508348;26;19990;-42
2024/04/21 04:39:49;;;;;;;5.60;3.50;;;;;;;;;;5503209;26;19986;-42
2024/04/21 04:42:15;;;;;;;4.30;3.80;;;;;;;;;;5503439;26;19985;-41
2024/04/21 04:44:42;;;;;;;6.53;3.90;;;;;;;;;;5503150;26;19993;-42
2024/04/21 04:47:08;;;;;;;6.60;4.47;;;;;;;;;;5505492;26;20002;-45
2024/04/21 04:49:35;;;;;;;6.75;3.92;;;;;;;;;;5511374;26;20155;-44
2024/04/21 04:52:02;;;;;;;5.50;3.58;;;;;;;;;;5502543;26;20159;-44
2024/04/21 04:54:28;;;;;;;6.88;3.83;;;;;;;;;;5504119;26;19998;-45
2024/04/21 04:56:55;;;;;;;6.47;3.60;;;;;;;;;;5503933;26;19986;-45
2024/04/21 04:59:22;;;;;;;7.72;4.10;;;;;;;;;;5504018;26;19990;-43
2024/04/21 05:01:49;;;;;;;16.60;4.40;;;;;;;;;;5504069;26;19998;-47
2024/04/21 05:04:15;;;;;;;14.65;4.20;;;;;;;;;;5503456;26;19986;-43
2024/04/21 05:06:42;;;;;;;18.77;4.25;;;;;;;;;;5503915;26;20002;-43
2024/04/21 05:09:09;;;;;;;9.32;3.80;;;;;;;;;;5501013;26;20005;-43
2024/04/21 05:11:35;;;;;;;10.60;4.18;;;;;;;;;;5499769;26;20083;-49
2024/04/21 05:14:02;;;;;;;6.97;3.83;;;;;;;;;;5499701;26;19998;-43
2024/04/21 05:16:28;;;;;;;8.60;3.38;;;;;;;;;;5499913;26;20006;-44
2024/04/21 05:18:55;;;;;;;7.82;3.78;;;;;;;;;;5499429;26;20046;-42
2024/04/21 05:21:22;;;;;;;16.15;4.20;;;;;;;;;;5499837;26;20050;-45
2024/04/21 05:23:49;;;;;;;9.38;4.13;;;;;;;;;;5500858;26;19994;-50
2024/04/21 05:26:15;;;;;;;10.25;3.45;;;;;;;;;;5503296;26;20039;-46
2024/04/21 05:28:42;;;;;;;9.82;3.30;;;;;;;;;;5503365;26;20003;-43
2024/04/21 05:31:09;;;;;;;15.15;4.13;;;;;;;;;;5502960;26;20159;-43
2024/04/21 05:33:36;;;;;;;19.00;3.67;;;;;;;;;;5503085;26;19993;-43
2024/04/21 05:36:03;;;;;;;12.48;3.10;;;;;;;;;;5503218;26;19993;-43
2024/04/21 05:38:29;;;;;;;9.18;2.90;;;;;;;;;;5503048;26;20002;-49
2024/04/21 05:40:56;;;;;;;8.23;2.88;;;;;;;;;;5503138;26;19989;-43
2024/04/21 05:43:24;;;;;;;10.57;3.63;;;;;;;;;;5503377;26;19986;-44
2024/04/21 05:46:03;;;;;;;10.95;3.05;;;;;;;;;;5502949;26;19993;-45
2024/04/21 05:48:29;;;;;;;6.80;2.80;;;;;;;;;;5502507;26;20086;-45
2024/04/21 05:50:56;;;;;;;5.22;2.72;;;;;;;;;;5502795;26;20019;-45
2024/04/21 05:53:23;;;;;;;7.13;3.00;;;;;;;;;;5503169;26;19997;-47
2024/04/21 05:55:49;;;;;;;7.25;2.83;;;;;;;;;;5502965;26;19990;-44
2024/04/21 05:58:16;;;;;;;6.47;2.92;;;;;;;;;;5502674;26;20099;-44
2024/04/21 06:00:42;;;;;;;7.57;3.03;;;;;;;;;;5501230;26;19986;-41
2024/04/21 06:03:09;;;;;;;10.48;3.50;;;;;;;;;;5501589;26;19994;-44
2024/04/21 06:05:35;;;;;;;8.80;3.00;;;;;;;;;;5505081;26;19994;-42
2024/04/21 06:08:02;;;;;;;9.13;2.80;;;;;;;;;;5505477;26;20065;-52
2024/04/21 06:10:29;;;;;;;14.18;3.63;;;;;;;;;;5505391;26;20019;-42
2024/04/21 06:12:55;;;;;;;7.88;3.83;;;;;;;;;;5505430;26;19996;-42
2024/04/21 06:15:22;;;;;;;7.03;3.88;;;;;;;;;;5505375;26;19990;-45
2024/04/21 06:17:48;;;;;;;12.68;4.30;;;;;;;;;;5505211;26;20038;-45
2024/04/21 06:20:15;;;;;;;8.50;4.13;;;;;;;;;;5505504;26;19986;-50
2024/04/21 06:22:42;;;;;;;14.60;6.35;;;;;;;;;;5505246;26;19992;-45
2024/04/21 06:25:09;;;;;;;17.33;10.35;;;;;;;;;;5505151;26;19986;-45
2024/04/21 06:27:35;;;;;;;19.75;10.95;;;;;;;;;;5505171;26;19982;-42
2024/04/21 06:30:02;;;;;;;20.23;9.88;;;;;;;;;;5505225;26;19990;-46
2024/04/21 06:32:29;;;;;;;20.48;10.05;;;;;;;;;;5504929;26;20042;-48
2024/04/21 06:34:55;;;;;;;15.38;7.35;;;;;;;;;;5504837;26;20005;-46
2024/04/21 06:37:22;;;;;;;15.20;6.93;;;;;;;;;;5505107;26;19997;-52
2024/04/21 06:39:49;;;;;;;15.45;5.97;;;;;;;;;;5504945;26;20001;-44
2024/04/21 06:42:15;;;;;;;11.05;4.70;;;;;;;;;;5505049;26;19996;-45
2024/04/21 06:44:42;;;;;;;9.65;4.18;;;;;;;;;;5504920;26;20096;-43
2024/04/21 06:47:11;;;;;;;10.77;4.50;;;;;;;;;;5504952;26;20130;-47
2024/04/21 06:49:38;;;;;;;11.02;3.85;;;;;;;;;;5504842;26;20206;-42
2024/04/21 06:52:05;;;;;;;9.35;3.35;;;;;;;;;;5505082;26;19986;-48
2024/04/21 06:54:32;;;;;;;8.20;3.58;;;;;;;;;;5504737;26;20001;-48
2024/04/21 06:56:59;;;;;;;8.95;3.00;;;;;;;;;;5504775;26;19998;-48
2024/04/21 06:59:25;;;;;;;7.15;4.15;;;;;;;;;;5504761;26;20217;-43
2024/04/21 07:01:52;;;;;;;14.80;5.80;;;;;;;;;;5505042;26;20038;-42
2024/04/21 07:04:19;;;;;;;17.23;6.88;;;;;;;;;;5504821;26;19993;-43
2024/04/21 07:06:45;;;;;;;12.38;6.60;;;;;;;;;;5504531;26;20016;-50
2024/04/21 07:09:12;;;;;;;12.60;5.30;;;;;;;;;;5504600;26;19986;-46
2024/04/21 07:11:39;;;;;;;6.57;3.78;;;;;;;;;;5504507;26;20014;-45
2024/04/21 07:14:05;;;;;;;9.50;3.88;;;;;;;;;;5504412;26;20046;-41
2024/04/21 07:16:32;;;;;;;6.10;3.00;;;;;;;;;;5504185;26;19994;-44
2024/04/21 07:18:58;;;;;;;6.57;3.08;;;;;;;;;;5504137;26;20163;-49
2024/04/21 07:21:25;;;;;;;7.03;2.50;;;;;;;;;;5504271;26;20218;-46
2024/04/21 07:23:52;;;;;;;7.85;2.40;;;;;;;;;;5504453;26;20136;-44
2024/04/21 07:26:18;;;;;;;9.68;2.60;;;;;;;;;;5504270;26;20087;-48
2024/04/21 07:28:45;;;;;;;7.38;2.40;;;;;;;;;;5504173;26;20066;-46
2024/04/21 07:31:12;;;;;;;3.85;2.20;;;;;;;;;;5504600;26;19993;-44
2024/04/21 07:33:38;;;;;;;5.93;2.40;;;;;;;;;;5504115;26;19997;-42
2024/04/21 07:36:05;;;;;;;11.57;2.65;;;;;;;;;;5504320;26;20013;-47
2024/04/21 07:38:32;;;;;;;4.55;2.13;;;;;;;;;;5503952;26;20111;-47
2024/04/21 07:40:59;;;;;;;7.50;2.53;;;;;;;;;;5504003;26;19990;-52
2024/04/21 07:43:26;;;;;;;6.13;2.50;;;;;;;;;;5504129;26;19993;-46
2024/04/21 07:45:52;;;;;;;3.30;2.17;;;;;;;;;;5504241;26;20000;-40
2024/04/21 07:48:19;;;;;;;6.43;2.40;;;;;;;;;;5503868;26;19986;-42
2024/04/21 07:50:45;;;;;;;6.65;2.35;;;;;;;;;;5504027;26;20006;-41
2024/04/21 07:53:12;;;;;;;6.43;2.38;;;;;;;;;;5503181;26;20002;-46
2024/04/21 07:55:40;;;;;;;7.30;2.33;;;;;;;;;;5503727;26;19994;-50
2024/04/21 07:58:06;;;;;;;7.35;2.30;;;;;;;;;;5503799;26;19982;-46
2024/04/21 08:00:36;;;;;;;9.35;2.38;;;;;;;;;;5504098;26;20006;-47
2024/04/21 08:03:03;;;;;;;9.25;2.30;;;;;;;;;;5503747;26;19988;-50
2024/04/21 08:05:30;;;;;;;5.93;2.05;;;;;;;;;;5503839;26;20038;-52
2024/04/21 08:07:56;;;;;;;5.70;2.50;;;;;;;;;;5503636;26;20035;-45
2024/04/21 08:10:23;;;;;;;6.10;2.58;;;;;;;;;;5503535;26;19993;-43
2024/04/21 08:12:49;;;;;;;6.68;2.40;;;;;;;;;;5503656;26;20187;-43
2024/04/21 08:15:16;;;;;;;3.45;2.47;;;;;;;;;;5503682;26;20137;-48
2024/04/21 08:17:42;;;;;;;6.18;2.40;;;;;;;;;;5503585;26;20076;-53
2024/04/21 08:20:09;;;;;;;5.57;2.35;;;;;;;;;;5503717;26;20195;-43
2024/04/21 08:22:36;;;;;;;6.07;2.40;;;;;;;;;;5503459;26;20042;-44
2024/04/21 08:25:02;;;;;;;6.35;1.92;;;;;;;;;;5503618;26;20014;-46
2024/04/21 08:27:29;;;;;;;5.25;1.92;;;;;;;;;;5501672;26;20057;-49
2024/04/21 08:29:56;;;;;;;7.57;2.20;;;;;;;;;;5503373;26;19993;-43
2024/04/21 08:32:22;;;;;;;7.38;2.38;;;;;;;;;;5503179;26;19994;-46
2024/04/21 08:34:49;;;;;;;4.88;1.80;;;;;;;;;;5503166;26;19990;-44
2024/04/21 08:37:16;;;;;;;4.25;1.73;;;;;;;;;;5503613;26;19994;-51
2024/04/21 08:39:43;;;;;;;6.15;1.77;;;;;;;;;;5503263;26;20023;-46
2024/04/21 08:42:11;;;;;;;7.13;1.90;;;;;;;;;;5503129;26;20005;-50
2024/04/21 08:44:38;;;;;;;6.07;1.88;;;;;;;;;;5503373;26;19982;-54
2024/04/21 08:47:06;;;;;;;7.03;1.77;;;;;;;;;;5503149;26;20094;-42
2024/04/21 08:49:34;;;;;;;7.35;1.95;;;;;;;;;;5502689;26;19997;-46
2024/04/21 08:52:01;;;;;;;5.53;1.95;;;;;;;;;;5503033;26;20190;-44
2024/04/21 08:54:28;;;;;;;7.13;1.77;;;;;;;;;;5503016;26;19990;-51
2024/04/21 08:56:57;;;;;;;7.55;1.75;;;;;;;;;;5502847;26;19986;-41
2024/04/21 08:59:24;;;;;;;9.30;2.08;;;;;;;;;;5503195;26;19990;-49
2024/04/21 09:01:52;;;;;;;6.35;1.88;;;;;;;;;;5503067;26;19982;-43
2024/04/21 09:04:18;;;;;;;5.45;1.60;;;;;;;;;;5502700;26;19994;-43
2024/04/21 09:06:45;;;;;;;8.02;2.00;;;;;;;;;;5502753;26;19982;-40
2024/04/21 09:09:12;;;;;;;4.55;1.83;;;;;;;;;;5502746;26;20060;-45
2024/04/21 09:11:39;;;;;;;6.00;2.00;;;;;;;;;;5502477;26;20017;-41
2024/04/21 09:14:06;;;;;;;5.43;1.80;;;;;;;;;;5502843;26;20006;-43
2024/04/21 09:16:32;;;;;;;5.55;1.85;;;;;;;;;;5502521;26;19986;-42
2024/04/21 09:19:07;;;;;;;4.65;1.95;;;;;;;;;;5502411;26;19990;-43
2024/04/21 09:21:34;;;;;;;3.25;2.08;;;;;;;;;;5502547;26;19994;-43
2024/04/21 09:24:01;;;;;;;3.75;1.80;;;;;;;;;;5502567;26;19986;-47
2024/04/21 09:26:27;;;;;;;4.82;1.98;;;;;;;;;;5502438;26;20001;-43
2024/04/21 09:28:54;;;;;;;3.47;2.00;;;;;;;;;;5502650;26;20002;-41
2024/04/21 09:31:20;;;;;;;3.67;2.03;;;;;;;;;;5502691;26;19990;-47
2024/04/21 09:33:49;;;;;;;3.17;1.55;;;;;;;;;;5502189;26;20031;-43
2024/04/21 09:36:16;;;;;;;5.88;1.80;;;;;;;;;;5502378;26;19982;-44
2024/04/21 09:38:45;;;;;;;4.30;1.98;;;;;;;;;;5504463;26;20210;-41
2024/04/21 09:41:12;;;;;;;6.78;1.83;;;;;;;;;;5505885;26;20244;-47
2024/04/21 09:43:39;;;;;;;6.60;2.00;;;;;;;;;;5505782;26;20002;-46
2024/04/21 09:46:06;;;;;;;4.85;1.85;;;;;;;;;;5505911;26;20136;-42
2024/04/21 09:48:34;;;;;;;4.55;2.20;;;;;;;;;;5505766;26;20039;-45
2024/04/21 09:51:01;;;;;;;5.20;2.28;;;;;;;;;;5505790;26;20038;-43
2024/04/21 09:53:27;;;;;;;4.22;2.03;;;;;;;;;;5505757;26;19994;-51
2024/04/21 09:55:55;;;;;;;5.05;2.00;;;;;;;;;;5505997;26;19989;-44
2024/04/21 09:58:27;;;;;;;3.13;1.75;;;;;;;;;;5505734;26;19989;-41
2024/04/21 10:00:54;;;;;;;4.93;1.88;;;;;;;;;;5505520;26;20128;-44
2024/04/21 10:03:21;;;;;;;6.20;2.10;;;;;;;;;;5505620;26;19990;-47
2024/04/21 10:05:50;;;;;;;4.72;2.50;;;;;;;;;;5505518;26;19986;-44
2024/04/21 10:08:16;;;;;;;6.97;2.60;;;;;;;;;;5505263;26;19994;-42
2024/04/21 10:10:44;;;;;;;6.45;2.38;;;;;;;;;;5505423;26;19986;-42
2024/04/21 10:13:10;;;;;;;4.13;2.33;;;;;;;;;;5505616;26;19990;-47
2024/04/21 10:15:37;;;;;;;8.77;2.83;;;;;;;;;;5505561;26;19979;-47
2024/04/21 10:18:04;;;;;;;6.30;3.22;;;;;;;;;;5505553;26;19990;-43
2024/04/21 10:20:37;;;;;;;7.25;2.65;;;;;;;;;;5505532;26;19986;-56
2024/04/21 10:23:09;;;;;;;5.80;2.70;;;;;;;;;;5505097;26;19986;-45
2024/04/21 10:25:36;;;;;;;8.15;2.40;;;;;;;;;;5505594;26;20038;-46
2024/04/21 10:28:06;;;;;;;6.57;2.50;;;;;;;;;;5504919;26;20005;-48
2024/04/21 10:30:33;;;;;;;12.45;2.65;;;;;;;;;;5504966;26;19986;-45
2024/04/21 10:33:00;;;;;;;6.68;2.58;;;;;;;;;;5505278;26;20051;-42
2024/04/21 10:35:36;;;;;;;7.25;2.90;;;;;;;;;;5505256;26;20004;-42
2024/04/21 10:38:13;;;;;;;9.68;2.78;;;;;;;;;;5505057;26;20006;-42
2024/04/21 10:40:40;;;;;;;12.45;2.85;;;;;;;;;;5505090;26;20023;-43
2024/04/21 10:43:08;;;;;;;10.93;2.72;;;;;;;;;;5504801;26;19997;-52
2024/04/21 10:45:37;;;;;;;10.35;2.53;;;;;;;;;;5505182;26;19994;-46
2024/04/21 10:48:04;;;;;;;7.43;2.50;;;;;;;;;;5505047;26;19986;-42
2024/04/21 10:50:32;;;;;;;15.70;3.05;;;;;;;;;;5503980;26;19982;-44
2024/04/21 10:52:59;;;;;;;26.92;4.15;;;;;;;;;;5504622;26;19993;-41
2024/04/21 10:55:26;;;;;;;15.65;4.03;;;;;;;;;;5504863;26;19982;-47
2024/04/21 10:57:52;;;;;;;13.77;4.40;;;;;;;;;;5504548;26;20098;-42
2024/04/21 11:00:19;;;;;;;9.45;3.70;;;;;;;;;;5504779;26;19982;-41
2024/04/21 11:02:45;;;;;;;8.57;3.30;;;;;;;;;;5503946;26;20031;-43
2024/04/21 11:05:12;;;;;;;15.82;3.70;;;;;;;;;;5504491;26;20064;-46
2024/04/21 11:07:39;;;;;;;10.27;3.80;;;;;;;;;;5503979;26;20196;-43
2024/04/21 11:10:05;;;;;;;7.93;3.72;;;;;;;;;;5504628;26;20063;-41
2024/04/21 11:12:33;;;;;;;8.00;3.17;;;;;;;;;;5504254;26;20017;-44
2024/04/21 11:15:00;;;;;;;8.65;3.35;;;;;;;;;;5504217;26;19997;-42
2024/04/21 11:17:27;;;;;;;6.03;2.80;;;;;;;;;;5504233;26;20146;-46
2024/04/21 11:19:53;;;;;;;8.80;3.13;;;;;;;;;;5504213;26;20047;-44
2024/04/21 11:22:21;;;;;;;11.57;3.42;;;;;;;;;;5504386;26;20198;-46
2024/04/21 11:24:48;;;;;;;4.90;2.95;;;;;;;;;;5504396;26;20194;-45
2024/04/21 11:27:16;;;;;;;10.45;3.75;;;;;;;;;;5504027;26;20047;-44
2024/04/21 11:29:43;;;;;;;12.50;6.82;;;;;;;;;;5504296;26;19994;-46
2024/04/21 11:32:11;;;;;;;10.52;9.45;;;;;;;;;;5504024;26;20042;-50
2024/04/21 11:34:40;;;;;;;8.35;6.20;;;;;;;;;;5503719;26;20050;-44
2024/04/21 11:37:16;;;;;;;8.95;5.28;;;;;;;;;;5504401;26;19982;-43
2024/04/21 11:39:42;;;;;;;7.53;4.70;;;;;;;;;;5504032;26;19986;-44
2024/04/21 11:42:09;;;;;;;9.70;5.32;;;;;;;;;;5504074;26;20006;-45
2024/04/21 11:44:36;;;;;;;6.38;5.18;;;;;;;;;;5504269;26;19982;-48
2024/04/21 11:47:03;;;;;;;6.70;4.50;;;;;;;;;;5504688;26;20091;-46
2024/04/21 11:49:30;;;;;;;6.00;4.78;;;;;;;;;;5503855;26;19993;-44
2024/04/21 11:51:56;;;;;;;8.73;4.38;;;;;;;;;;5504180;26;19986;-47
2024/04/21 11:54:23;;;;;;;8.93;4.20;;;;;;;;;;5504002;26;19993;-46
2024/04/21 11:56:50;;;;;;;7.75;3.60;;;;;;;;;;5504018;26;19997;-45
2024/04/21 11:59:16;;;;;;;5.25;3.78;;;;;;;;;;5504243;26;20099;-42
2024/04/21 12:01:43;;;;;;;7.97;3.70;;;;;;;;;;5503954;26;19993;-47
2024/04/21 12:04:10;;;;;;;4.63;3.10;;;;;;;;;;5503810;26;20132;-47
2024/04/21 12:06:36;;;;;;;6.95;3.10;;;;;;;;;;5504336;26;19986;-43
2024/04/21 12:09:05;;;;;;;6.20;3.30;;;;;;;;;;5503785;26;20002;-47
2024/04/21 12:11:32;;;;;;;6.07;2.88;;;;;;;;;;5503714;26;20014;-51
2024/04/21 12:14:23;;;;;;;7.38;3.22;;;;;;;;;;5504031;26;19986;-42
2024/04/21 12:16:49;;;;;;;6.43;3.20;;;;;;;;;;5503348;26;19982;-51
2024/04/21 12:19:16;;;;;;;6.15;3.13;;;;;;;;;;5503686;26;19986;-45
2024/04/21 12:21:43;;;;;;;4.75;3.05;;;;;;;;;;5504495;26;19978;-44
2024/04/21 12:24:09;;;;;;;7.53;3.42;;;;;;;;;;5503593;26;19994;-48
2024/04/21 12:26:36;;;;;;;8.32;3.33;;;;;;;;;;5503676;26;20038;-44
2024/04/21 12:29:03;;;;;;;7.95;3.53;;;;;;;;;;5503607;26;19992;-44
2024/04/21 12:31:29;;;;;;;4.13;3.17;;;;;;;;;;5503659;26;19978;-45
2024/04/21 12:33:56;;;;;;;8.40;3.78;;;;;;;;;;5503332;26;19986;-45
2024/04/21 12:36:22;;;;;;;5.70;3.38;;;;;;;;;;5503219;26;19982;-47
2024/04/21 12:38:49;;;;;;;8.93;3.50;;;;;;;;;;5503098;26;19986;-45
2024/04/21 12:41:18;;;;;;;6.00;3.47;;;;;;;;;;5503455;26;19994;-43
2024/04/21 12:43:44;;;;;;;5.05;3.30;;;;;;;;;;5503102;26;19986;-52
2024/04/21 12:46:11;;;;;;;5.72;3.10;;;;;;;;;;5503439;26;20155;-48
2024/04/21 12:48:37;;;;;;;6.40;3.47;;;;;;;;;;5503145;26;20108;-48
2024/04/21 12:51:04;;;;;;;5.28;3.80;;;;;;;;;;5503277;26;20094;-47
2024/04/21 12:53:31;;;;;;;4.68;3.53;;;;;;;;;;5502793;26;20084;-46
2024/04/21 12:55:57;;;;;;;5.28;3.13;;;;;;;;;;5503181;26;19990;-50
2024/04/21 12:58:24;;;;;;;5.82;3.15;;;;;;;;;;5503121;26;20144;-52
2024/04/21 13:00:51;;;;;;;3.88;2.80;;;;;;;;;;5502813;26;19993;-48
2024/04/21 13:03:17;;;;;;;5.25;2.72;;;;;;;;;;5503267;26;20006;-43
2024/04/21 13:05:44;;;;;;;3.58;3.00;;;;;;;;;;5502786;26;19990;-46
2024/04/21 13:08:10;;;;;;;5.15;2.92;;;;;;;;;;5502399;26;19986;-41
2024/04/21 13:10:37;;;;;;;4.63;3.03;;;;;;;;;;5502989;26;20241;-51
2024/04/21 13:13:03;;;;;;;4.80;3.00;;;;;;;;;;5503711;26;20120;-50
2024/04/21 13:15:30;;;;;;;5.15;3.22;;;;;;;;;;5506631;26;19986;-43
2024/04/21 13:17:57;;;;;;;5.18;3.13;;;;;;;;;;5506049;26;20190;-48
2024/04/21 13:20:23;;;;;;;6.35;3.00;;;;;;;;;;5506168;26;20195;-52
2024/04/21 13:22:50;;;;;;;5.35;3.15;;;;;;;;;;5506361;26;19993;-44
2024/04/21 13:25:17;;;;;;;3.95;2.85;;;;;;;;;;5505977;26;20191;-43
2024/04/21 13:27:44;;;;;;;4.97;3.10;;;;;;;;;;5506336;26;19986;-44
2024/04/21 13:30:11;;;;;;;3.53;2.67;;;;;;;;;;5505897;26;20148;-44
2024/04/21 13:32:38;;;;;;;4.00;3.08;;;;;;;;;;5505933;26;20091;-42
2024/04/21 13:35:04;;;;;;;4.43;3.05;;;;;;;;;;5506723;26;19998;-44
2024/04/21 13:37:31;;;;;;;4.80;3.20;;;;;;;;;;5505982;26;20191;-45
2024/04/21 13:39:57;;;;;;;3.50;2.83;;;;;;;;;;5506234;26;20095;-44
2024/04/21 13:42:24;;;;;;;3.67;3.05;;;;;;;;;;5506214;26;19990;-52
2024/04/21 13:44:51;;;;;;;4.35;3.00;;;;;;;;;;5505799;26;19994;-42
2024/04/21 13:47:17;;;;;;;5.25;3.22;;;;;;;;;;5505465;26;19994;-42
2024/04/21 13:49:44;;;;;;;5.70;3.40;;;;;;;;;;5505799;26;19990;-48
2024/04/21 13:52:10;;;;;;;4.38;3.17;;;;;;;;;;5505978;26;19985;-45
2024/04/21 13:54:37;;;;;;;4.75;3.13;;;;;;;;;;5505990;26;20047;-44
2024/04/21 13:57:04;;;;;;;4.25;3.22;;;;;;;;;;5505829;26;19986;-45
2024/04/21 13:59:30;;;;;;;4.68;3.60;;;;;;;;;;5505027;26;20167;-47
2024/04/21 14:01:57;;;;;;;4.15;3.60;;;;;;;;;;5506027;26;20187;-50
2024/04/21 14:04:24;;;;;;;5.70;3.40;;;;;;;;;;5505538;26;19993;-45
2024/04/21 14:06:50;;;;;;;4.72;3.05;;;;;;;;;;5505648;26;19993;-45
2024/04/21 14:09:17;;;;;;;5.22;3.58;;;;;;;;;;5505905;26;19986;-45
2024/04/21 14:11:43;;;;;;;5.13;3.50;;;;;;;;;;5505484;26;20105;-51
2024/04/21 14:14:10;;;;;;;3.97;3.58;;;;;;;;;;5505295;26;19986;-46
2024/04/21 14:16:37;;;;;;;3.92;3.50;;;;;;;;;;5505595;26;19996;-45
2024/04/21 14:19:04;;;;;;;4.30;3.90;;;;;;;;;;5505592;26;19990;-46
2024/04/21 14:21:31;;;;;;;4.95;4.05;;;;;;;;;;5504406;26;19982;-45
2024/04/21 14:23:58;;;;;;;4.68;3.85;;;;;;;;;;5504469;26;20010;-47
2024/04/21 14:26:24;;;;;;;4.68;4.13;;;;;;;;;;5504847;26;20001;-45
2024/04/21 14:28:51;;;;;;;4.93;4.20;;;;;;;;;;5505454;26;20038;-46
2024/04/21 14:31:18;;;;;;;6.65;4.32;;;;;;;;;;5505239;26;20034;-49
2024/04/21 14:33:44;;;;;;;4.85;4.35;;;;;;;;;;5505299;26;19994;-47
2024/04/21 14:36:11;;;;;;;5.60;4.72;;;;;;;;;;5505260;26;20195;-46
2024/04/21 14:38:37;;;;;;;5.88;5.03;;;;;;;;;;5505262;26;20203;-46